createdAt,value
2024-04-06T00:02:09.771Z,63.21
2024-04-06T00:04:39.218Z,63.34
2024-04-06T00:07:07.695Z,63.36
2024-04-06T00:09:37.120Z,63.32
2024-04-06T00:12:06.409Z,63.39
2024-04-06T00:14:34.868Z,63.53
2024-04-06T00:17:03.369Z,63.44
2024-04-06T00:19:31.826Z,63.46
2024-04-06T00:22:00.408Z,63.47
2024-04-06T00:24:28.863Z,63.38
2024-04-06T00:26:57.327Z,63.56
2024-04-06T00:29:25.836Z,63.55
2024-04-06T00:31:54.350Z,63.68
2024-04-06T00:34:22.952Z,63.60
2024-04-06T00:36:51.901Z,63.59
2024-04-06T00:39:20.372Z,63.68
2024-04-06T00:41:49.099Z,63.78
2024-04-06T00:44:17.603Z,64.05
2024-04-06T00:46:46.088Z,64.30
2024-04-06T00:49:14.674Z,64.54
2024-04-06T00:51:43.133Z,64.65
2024-04-06T00:54:12.275Z,64.80
2024-04-06T00:56:40.870Z,64.77
2024-04-06T00:59:09.473Z,64.81
2024-04-06T01:01:41.915Z,64.42
2024-04-06T01:04:12.846Z,64.26
2024-04-06T01:06:41.318Z,63.94
2024-04-06T01:09:09.945Z,63.84
2024-04-06T01:11:39.583Z,63.73
2024-04-06T01:14:08.177Z,63.51
2024-04-06T01:16:36.762Z,63.51
2024-04-06T01:19:05.224Z,63.31
2024-04-06T01:21:33.768Z,63.32
2024-04-06T01:24:30.439Z,63.05
2024-04-06T01:27:01.243Z,62.99
2024-04-06T01:29:31.613Z,62.92
2024-04-06T01:32:00.155Z,62.73
2024-04-06T01:34:28.618Z,62.83
2024-04-06T01:36:57.118Z,62.60
2024-04-06T01:39:25.662Z,62.57
2024-04-06T01:41:54.212Z,62.57
2024-04-06T01:44:22.715Z,62.53
2024-04-06T01:46:51.196Z,62.42
2024-04-06T01:49:21.003Z,62.33
2024-04-06T01:51:49.533Z,62.45
2024-04-06T01:54:18.053Z,62.44
2024-04-06T01:56:46.584Z,62.40
2024-04-06T01:59:15.058Z,62.27
2024-04-06T02:01:44.965Z,62.10
2024-04-06T02:04:13.442Z,62.21
2024-04-06T02:06:41.904Z,62.13
2024-04-06T02:09:10.653Z,62.08
2024-04-06T02:11:39.140Z,61.92
2024-04-06T02:14:07.665Z,62.14
2024-04-06T02:16:36.138Z,62.16
2024-04-06T02:19:04.840Z,62.16
2024-04-06T02:21:33.303Z,62.12
2024-04-06T02:24:01.785Z,62.06
2024-04-06T02:26:30.333Z,62.16
2024-04-06T02:28:59.214Z,62.16
2024-04-06T02:31:28.253Z,62.13
2024-04-06T02:33:56.732Z,62.25
2024-04-06T02:36:25.317Z,62.28
2024-04-06T02:38:53.797Z,62.34
2024-04-06T02:41:22.426Z,62.33
2024-04-06T02:43:51.207Z,62.54
2024-04-06T02:46:19.741Z,62.53
2024-04-06T02:48:49.790Z,62.70
2024-04-06T02:51:18.315Z,62.72
2024-04-06T02:53:46.800Z,62.65
2024-04-06T02:56:15.342Z,62.75
2024-04-06T02:58:44.390Z,62.89
2024-04-06T03:01:13.323Z,62.91
2024-04-06T03:03:41.806Z,62.95
2024-04-06T03:06:10.425Z,62.99
2024-04-06T03:08:38.893Z,63.03
2024-04-06T03:11:07.386Z,63.17
2024-04-06T03:13:35.867Z,63.19
2024-04-06T03:16:04.572Z,63.16
2024-04-06T03:18:33.095Z,63.23
2024-04-06T03:21:01.874Z,63.26
2024-04-06T03:23:30.374Z,63.19
2024-04-06T03:25:58.954Z,63.19
2024-04-06T03:28:27.446Z,63.17
2024-04-06T03:30:55.913Z,63.25
2024-04-06T03:33:24.788Z,63.43
2024-04-06T03:35:53.285Z,63.38
2024-04-06T03:38:21.781Z,63.52
2024-04-06T03:40:50.439Z,63.54
2024-04-06T03:43:18.947Z,63.56
2024-04-06T03:45:51.676Z,63.70
2024-04-06T03:48:20.166Z,63.84
2024-04-06T03:50:48.667Z,63.65
2024-04-06T03:53:18.053Z,63.54
2024-04-06T03:55:46.586Z,63.39
2024-04-06T03:58:15.313Z,63.52
2024-04-06T04:00:43.947Z,63.57
2024-04-06T04:03:12.546Z,63.76
2024-04-06T04:05:41.212Z,63.86
2024-04-06T04:08:09.792Z,63.65
2024-04-06T04:10:39.084Z,63.85
2024-04-06T04:13:10.737Z,63.82
2024-04-06T04:15:39.888Z,63.92
2024-04-06T04:18:10.705Z,63.92
2024-04-06T04:20:39.198Z,64.00
2024-04-06T04:23:07.718Z,64.00
2024-04-06T04:25:36.254Z,64.10
2024-04-06T04:28:05.630Z,63.94
2024-04-06T04:30:34.126Z,63.70
2024-04-06T04:33:02.631Z,63.88
2024-04-06T04:35:31.420Z,63.82
2024-04-06T04:37:59.932Z,63.82
2024-04-06T04:40:28.481Z,63.75
2024-04-06T04:42:57.001Z,63.82
2024-04-06T04:45:25.481Z,63.74
2024-04-06T04:47:53.926Z,63.64
2024-04-06T04:50:22.424Z,63.83
2024-04-06T04:52:51.428Z,63.97
2024-04-06T04:55:20.272Z,63.93
2024-04-06T04:57:49.258Z,63.87
2024-04-06T05:00:17.738Z,63.77
2024-04-06T05:02:46.358Z,63.88
2024-04-06T05:05:15.033Z,63.96
2024-04-06T05:07:43.497Z,64.33
2024-04-06T05:10:12.067Z,64.27
2024-04-06T05:12:40.515Z,64.33
2024-04-06T05:15:09.163Z,64.36
2024-04-06T05:17:38.601Z,64.38
2024-04-06T05:20:07.521Z,64.47
2024-04-06T05:22:36.029Z,64.37
2024-04-06T05:25:04.699Z,64.42
2024-04-06T05:27:33.179Z,64.56
2024-04-06T05:30:01.963Z,64.53
2024-04-06T05:32:30.553Z,64.52
2024-04-06T05:34:59.085Z,64.66
2024-04-06T05:37:27.609Z,64.60
2024-04-06T05:39:56.234Z,64.89
2024-04-06T05:42:24.892Z,64.74
2024-04-06T05:44:53.357Z,64.61
2024-04-06T05:47:21.847Z,64.63
2024-04-06T05:49:50.367Z,64.55
2024-04-06T05:52:18.941Z,64.43
2024-04-06T05:54:47.424Z,64.44
2024-04-06T05:57:15.895Z,64.63
2024-04-06T05:59:44.360Z,64.84
2024-04-06T06:02:12.940Z,64.89
2024-04-06T06:04:41.418Z,64.73
2024-04-06T06:07:10.381Z,64.90
2024-04-06T06:09:38.858Z,64.77
2024-04-06T06:12:07.505Z,64.70
2024-04-06T06:14:36.015Z,64.46
2024-04-06T06:17:04.669Z,64.20
2024-04-06T06:19:33.209Z,64.14
2024-04-06T06:22:01.673Z,63.87
2024-04-06T06:24:31.085Z,63.63
2024-04-06T06:26:59.553Z,63.41
2024-04-06T06:29:28.042Z,63.14
2024-04-06T06:31:56.550Z,63.00
2024-04-06T06:34:25.008Z,62.93
2024-04-06T06:41:56.520Z,61.87
2024-04-06T06:44:24.990Z,61.61
2024-04-06T06:46:53.461Z,61.38
2024-04-06T06:49:21.927Z,61.29
2024-04-06T06:51:50.408Z,60.87
2024-04-06T06:54:18.893Z,60.91
2024-04-06T06:56:47.343Z,60.55
2024-04-06T06:59:16.251Z,60.32
2024-04-06T07:01:44.748Z,60.15
2024-04-06T07:04:13.802Z,59.91
2024-04-06T07:09:13.827Z,59.62
2024-04-06T07:11:42.279Z,58.97
2024-04-06T07:14:12.596Z,58.55
2024-04-06T07:16:41.061Z,58.59
2024-04-06T07:19:10.427Z,57.98
2024-04-06T07:21:39.211Z,57.84
2024-04-06T07:24:30.124Z,57.66
2024-04-06T07:26:58.609Z,57.10
2024-04-06T07:29:27.081Z,56.54
2024-04-06T07:31:55.543Z,56.16
2024-04-06T07:34:24.002Z,56.13
2024-04-06T07:36:52.561Z,55.59
2024-04-06T07:39:21.016Z,55.40
2024-04-06T07:41:49.466Z,54.25
2024-04-06T07:44:17.974Z,53.41
2024-04-06T07:46:46.423Z,52.52
2024-04-06T07:49:14.985Z,52.94
2024-04-06T07:51:43.476Z,51.73
2024-04-06T07:54:11.935Z,50.37
2024-04-06T07:56:57.233Z,49.70
2024-04-06T07:59:25.772Z,49.22
2024-04-06T08:01:54.260Z,48.73
2024-04-06T08:04:22.751Z,48.23
2024-04-06T08:06:52.507Z,47.44
2024-04-06T08:09:21.000Z,46.50
2024-04-06T08:11:49.447Z,46.16
2024-04-06T08:14:24.349Z,46.07
2024-04-06T08:16:54.041Z,45.00
2024-04-06T08:19:22.606Z,44.19
2024-04-06T08:21:51.709Z,44.06
2024-04-06T08:24:20.364Z,43.17
2024-04-06T08:26:48.868Z,41.71
2024-04-06T08:29:17.591Z,40.92
2024-04-06T08:31:46.059Z,40.95
2024-04-06T08:34:14.989Z,40.24
2024-04-06T08:36:43.485Z,39.57
2024-04-06T08:39:12.002Z,39.08
2024-04-06T08:41:44.417Z,39.02
2024-04-06T08:44:14.374Z,39.05
2024-04-06T08:46:42.966Z,38.82
2024-04-06T08:49:14.477Z,38.98
2024-04-06T08:51:43.197Z,39.18
2024-04-06T08:54:11.896Z,39.57
2024-04-06T08:56:43.985Z,39.70
2024-04-06T08:59:12.470Z,39.70
2024-04-06T09:01:40.928Z,40.27
2024-04-06T09:04:09.439Z,40.41
2024-04-06T09:06:41.410Z,40.26
2024-04-06T09:09:09.906Z,40.42
2024-04-06T09:11:44.315Z,41.10
2024-04-06T09:14:13.401Z,41.09
2024-04-06T09:16:42.153Z,40.89
2024-04-06T09:19:10.662Z,41.07
2024-04-06T09:21:39.137Z,40.94
2024-04-06T09:24:07.728Z,40.42
2024-04-06T09:26:36.227Z,40.13
2024-04-06T09:29:04.666Z,39.91
2024-04-06T09:31:36.552Z,39.59
2024-04-06T09:34:05.033Z,39.56
2024-04-06T09:36:40.885Z,39.52
2024-04-06T09:39:10.522Z,39.12
2024-04-06T09:41:39.682Z,38.74
2024-04-06T09:44:08.374Z,38.34
2024-04-06T09:46:37.901Z,37.58
2024-04-06T09:49:06.526Z,37.77
2024-04-06T09:51:34.987Z,37.31
2024-04-06T09:54:04.309Z,36.37
2024-04-06T09:56:33.146Z,35.07
2024-04-06T09:59:01.725Z,33.84
2024-04-06T10:01:31.393Z,32.63
2024-04-06T10:03:59.870Z,32.66
2024-04-06T10:06:29.920Z,31.14
2024-04-06T10:09:01.004Z,30.13
2024-04-06T10:11:29.990Z,28.74
2024-04-06T10:14:06.414Z,27.86
2024-04-06T10:16:38.324Z,27.26
2024-04-06T10:19:08.353Z,27.34
2024-04-06T10:21:46.694Z,26.38
2024-04-06T10:24:15.398Z,25.69
2024-04-06T10:26:53.884Z,25.77
2024-04-06T10:29:23.508Z,26.08
2024-04-06T10:31:52.054Z,26.23
2024-04-06T10:34:20.596Z,26.76
2024-04-06T10:36:49.683Z,26.69
2024-04-06T10:39:18.735Z,26.77
2024-04-06T10:41:47.302Z,27.65
2024-04-06T10:44:15.962Z,28.33
2024-04-06T10:46:44.565Z,28.18
2024-04-06T10:49:14.968Z,28.55
2024-04-06T10:51:43.645Z,28.78
2024-04-06T10:54:12.170Z,29.16
2024-04-06T10:56:41.860Z,29.71
2024-04-06T10:59:11.531Z,30.60
2024-04-06T11:01:41.532Z,31.10
2024-04-06T11:04:13.535Z,31.43
2024-04-06T11:06:42.100Z,31.53
2024-04-06T11:09:11.547Z,31.58
2024-04-06T11:11:40.439Z,31.69
2024-04-06T11:14:11.655Z,31.76
2024-04-06T11:16:42.569Z,31.51
2024-04-06T11:19:14.237Z,31.75
2024-04-06T11:21:42.820Z,31.95
2024-04-06T11:24:11.678Z,30.99
2024-04-06T11:26:40.168Z,29.31
2024-04-06T11:29:11.598Z,27.39
2024-04-06T11:31:40.108Z,26.19
2024-04-06T11:34:10.075Z,25.27
2024-04-06T11:36:38.728Z,24.19
2024-04-06T11:39:07.230Z,24.09
2024-04-06T11:41:35.713Z,23.63
2024-04-06T11:44:05.220Z,24.02
2024-04-06T11:46:35.654Z,24.50
2024-04-06T11:49:06.964Z,24.35
2024-04-06T11:51:35.434Z,24.02
2024-04-06T11:54:04.030Z,24.30
2024-04-06T11:56:32.609Z,24.89
2024-04-06T11:59:01.167Z,24.97
2024-04-06T12:01:29.664Z,25.61
2024-04-06T12:03:58.152Z,25.93
2024-04-06T12:06:26.869Z,26.56
2024-04-06T12:08:55.453Z,27.25
2024-04-06T12:11:23.947Z,27.80
2024-04-06T12:13:52.464Z,28.60
2024-04-06T12:16:21.823Z,29.26
2024-04-06T12:18:50.386Z,29.69
2024-04-06T12:21:18.928Z,30.25
2024-04-06T12:23:47.432Z,30.86
2024-04-06T12:26:16.541Z,31.46
2024-04-06T12:28:45.615Z,31.88
2024-04-06T12:31:14.210Z,32.15
2024-04-06T12:33:42.695Z,32.42
2024-04-06T12:36:11.680Z,32.87
2024-04-06T12:38:40.168Z,33.14
2024-04-06T12:41:08.942Z,33.27
2024-04-06T12:43:37.419Z,33.57
2024-04-06T12:46:05.960Z,33.78
2024-04-06T12:48:34.805Z,34.16
2024-04-06T12:51:04.916Z,34.24
2024-04-06T12:53:34.536Z,34.36
2024-04-06T12:56:03.075Z,34.66
2024-04-06T12:58:31.631Z,34.65
2024-04-06T13:01:00.119Z,34.90
2024-04-06T13:03:28.599Z,35.09
2024-04-06T13:06:03.473Z,35.06
2024-04-06T13:08:33.311Z,35.45
2024-04-06T13:11:01.857Z,35.69
2024-04-06T13:13:30.358Z,35.67
2024-04-06T13:15:58.850Z,35.91
2024-04-06T13:18:27.684Z,36.09
2024-04-06T13:21:04.517Z,36.21
2024-04-06T13:23:33.246Z,36.49
2024-04-06T13:26:01.717Z,36.69
2024-04-06T13:28:30.207Z,37.23
2024-04-06T13:30:58.809Z,37.72
2024-04-06T13:33:27.714Z,37.74
2024-04-06T13:35:57.233Z,37.86
2024-04-06T13:38:25.749Z,37.89
2024-04-06T13:40:54.229Z,37.90
2024-04-06T13:43:22.787Z,37.93
2024-04-06T13:45:52.339Z,38.26
2024-04-06T13:48:20.863Z,38.08
2024-04-06T13:50:55.280Z,37.94
2024-04-06T13:53:24.014Z,38.37
2024-04-06T13:55:52.557Z,38.65
2024-04-06T13:58:23.289Z,38.79
2024-04-06T14:00:51.920Z,38.93
2024-04-06T14:03:20.999Z,39.03
2024-04-06T14:05:51.851Z,39.21
2024-04-06T14:08:20.792Z,39.43
2024-04-06T14:10:49.572Z,39.37
2024-04-06T14:13:18.283Z,39.72
2024-04-06T14:15:46.821Z,39.61
2024-04-06T14:18:15.274Z,39.57
2024-04-06T14:20:43.766Z,39.74
2024-04-06T14:23:12.262Z,39.90
2024-04-06T14:25:41.960Z,40.16
2024-04-06T14:28:10.447Z,39.97
2024-04-06T14:30:38.961Z,39.92
2024-04-06T14:33:07.446Z,39.74
2024-04-06T14:35:35.967Z,39.92
2024-04-06T14:38:05.369Z,39.93
2024-04-06T14:40:33.873Z,40.02
2024-04-06T14:43:02.607Z,39.81
2024-04-06T14:45:31.180Z,39.76
2024-04-06T14:48:00.175Z,39.67
2024-04-06T14:50:28.683Z,39.62
2024-04-06T14:52:57.366Z,39.88
2024-04-06T14:55:25.997Z,40.08
2024-04-06T14:57:54.943Z,40.04
2024-04-06T15:00:24.379Z,40.15
2024-04-06T15:02:52.886Z,40.12
2024-04-06T15:05:21.903Z,40.43
2024-04-06T15:07:52.501Z,40.70
2024-04-06T15:10:21.578Z,40.58
2024-04-06T15:12:50.233Z,40.88
2024-04-06T15:15:18.731Z,40.88
2024-04-06T15:17:47.211Z,40.75
2024-04-06T15:20:15.890Z,40.94
2024-04-06T15:22:44.372Z,41.10
2024-04-06T15:25:15.631Z,41.41
2024-04-06T15:27:47.989Z,41.54
2024-04-06T15:30:16.489Z,41.82
2024-04-06T15:32:45.079Z,41.75
2024-04-06T15:35:13.598Z,41.90
2024-04-06T15:37:42.152Z,42.08
2024-04-06T15:40:11.292Z,42.23
2024-04-06T15:42:40.287Z,42.15
2024-04-06T15:45:09.417Z,42.22
2024-04-06T15:47:38.117Z,42.43
2024-04-06T15:50:10.512Z,42.46
2024-04-06T15:52:39.180Z,42.71
2024-04-06T15:55:07.880Z,43.05
2024-04-06T15:57:36.366Z,42.92
2024-04-06T16:00:06.012Z,42.93
2024-04-06T16:02:34.722Z,43.23
2024-04-06T16:05:03.705Z,43.17
2024-04-06T16:07:32.158Z,43.38
2024-04-06T16:10:00.676Z,43.44
2024-04-06T16:12:29.402Z,43.77
2024-04-06T16:14:57.889Z,43.67
2024-04-06T16:17:26.462Z,43.82
2024-04-06T16:19:55.122Z,43.99
2024-04-06T16:22:23.811Z,43.91
2024-04-06T16:24:53.497Z,43.92
2024-04-06T16:27:23.278Z,43.86
2024-04-06T16:29:51.838Z,44.04
2024-04-06T16:32:20.391Z,44.23
2024-04-06T16:34:48.835Z,44.60
2024-04-06T16:37:17.945Z,44.53
2024-04-06T16:39:46.408Z,44.90
2024-04-06T16:42:14.927Z,45.20
2024-04-06T16:44:43.831Z,45.31
2024-04-06T16:47:12.825Z,45.71
2024-04-06T16:49:41.685Z,45.87
2024-04-06T16:52:10.389Z,46.02
2024-04-06T16:54:38.886Z,46.09
2024-04-06T16:57:07.551Z,46.28
2024-04-06T16:59:37.360Z,46.35
2024-04-06T17:02:06.282Z,46.56
2024-04-06T17:04:35.123Z,46.81
2024-04-06T17:07:03.599Z,47.15
2024-04-06T17:09:32.845Z,47.61
2024-04-06T17:12:01.425Z,47.70
2024-04-06T17:14:30.025Z,47.77
2024-04-06T17:16:58.545Z,48.06
2024-04-06T17:19:27.092Z,48.24
2024-04-06T17:21:55.698Z,48.32
2024-04-06T17:24:24.154Z,48.44
2024-04-06T17:26:52.671Z,48.80
2024-04-06T17:29:21.149Z,49.11
2024-04-06T17:31:50.254Z,49.35
2024-04-06T17:34:19.244Z,49.84
2024-04-06T17:36:47.816Z,50.22
2024-04-06T17:39:16.350Z,50.41
2024-04-06T17:41:44.884Z,50.72
2024-04-06T17:44:13.446Z,50.89
2024-04-06T17:46:42.384Z,51.16
2024-04-06T17:49:12.049Z,51.37
2024-04-06T17:51:41.116Z,51.59
2024-04-06T17:54:09.788Z,51.96
2024-04-06T17:56:38.462Z,51.95
2024-04-06T17:59:07.141Z,52.17
2024-04-06T18:01:36.326Z,52.24
2024-04-06T18:04:05.184Z,52.48
2024-04-06T18:06:36.705Z,52.72
2024-04-06T18:09:05.416Z,52.94
2024-04-06T18:11:34.020Z,53.01
2024-04-06T18:14:02.511Z,53.30
2024-04-06T18:16:31.066Z,53.55
2024-04-06T18:19:02.250Z,53.84
2024-04-06T18:21:31.250Z,54.10
2024-04-06T18:23:59.796Z,54.33
2024-04-06T18:26:28.285Z,54.57
2024-04-06T18:28:56.916Z,54.60
2024-04-06T18:31:25.529Z,54.83
2024-04-06T18:33:54.486Z,55.08
2024-04-06T18:36:22.955Z,55.21
2024-04-06T18:38:51.706Z,55.48
2024-04-06T18:41:23.586Z,55.62
2024-04-06T18:43:52.157Z,55.93
2024-04-06T18:46:20.880Z,56.14
2024-04-06T18:48:49.328Z,56.23
2024-04-06T18:51:18.267Z,56.32
2024-04-06T18:53:46.766Z,56.41
2024-04-06T18:56:15.258Z,56.54
2024-04-06T18:58:43.741Z,56.60
2024-04-06T19:01:24.839Z,56.83
2024-04-06T19:03:57.142Z,56.93
2024-04-06T19:06:26.425Z,56.88
2024-04-06T19:08:54.927Z,57.06
2024-04-06T19:11:23.500Z,57.10
2024-04-06T19:13:51.998Z,57.20
2024-04-06T19:16:20.486Z,57.26
2024-04-06T19:18:49.008Z,57.59
2024-04-06T19:21:17.701Z,57.56
2024-04-06T19:23:46.973Z,57.65
2024-04-06T19:26:15.781Z,57.82
2024-04-06T19:28:44.362Z,58.05
2024-04-06T19:31:12.968Z,58.18
2024-04-06T19:33:41.586Z,58.26
2024-04-06T19:36:10.172Z,58.52
2024-04-06T19:38:39.079Z,58.71
2024-04-06T19:41:07.587Z,58.74
2024-04-06T19:43:36.106Z,58.96
2024-04-06T19:46:04.897Z,58.99
2024-04-06T19:48:33.400Z,59.11
2024-04-06T19:51:02.479Z,59.16
2024-04-06T19:53:30.964Z,59.20
2024-04-06T19:56:00.164Z,59.39
2024-04-06T19:58:28.803Z,59.51
2024-04-06T20:00:57.498Z,59.60
2024-04-06T20:03:26.026Z,59.60
2024-04-06T20:06:03.813Z,59.74
2024-04-06T20:08:38.589Z,59.94
2024-04-06T20:11:07.209Z,59.95
2024-04-06T20:13:37.566Z,60.05
2024-04-06T20:16:06.246Z,60.11
2024-04-06T20:18:34.746Z,60.26
2024-04-06T20:21:06.384Z,60.34
2024-04-06T20:23:52.184Z,60.35
2024-04-06T20:26:20.656Z,60.51
2024-04-06T20:28:49.517Z,60.48
2024-04-06T20:31:18.567Z,60.78
2024-04-06T20:33:47.031Z,60.54
2024-04-06T20:36:16.523Z,60.61
2024-04-06T20:38:45.159Z,60.58
2024-04-06T20:41:15.578Z,60.79
2024-04-06T20:43:49.086Z,61.04
2024-04-06T20:46:17.916Z,60.97
2024-04-06T20:48:46.389Z,60.98
2024-04-06T20:51:14.919Z,61.15
2024-04-06T20:53:43.431Z,61.31
2024-04-06T20:56:12.416Z,61.40
2024-04-06T20:58:40.937Z,61.32
2024-04-06T21:01:10.270Z,61.47
2024-04-06T21:03:38.803Z,61.56
2024-04-06T21:06:10.794Z,61.60
2024-04-06T21:08:41.398Z,61.72
2024-04-06T21:11:09.903Z,61.80
2024-04-06T21:13:38.501Z,61.87
2024-04-06T21:16:07.229Z,61.89
2024-04-06T21:18:35.774Z,62.04
2024-04-06T21:21:04.554Z,62.05
2024-04-06T21:23:33.471Z,62.22
2024-04-06T21:26:02.499Z,62.27
2024-04-06T21:28:31.373Z,62.19
2024-04-06T21:30:59.889Z,62.46
2024-04-06T21:33:28.412Z,62.41
2024-04-06T21:35:57.102Z,62.59
2024-04-06T21:38:25.566Z,62.56
2024-04-06T21:40:54.212Z,62.56
2024-04-06T21:43:22.709Z,62.62
2024-04-06T21:45:51.184Z,62.58
2024-04-06T21:48:22.326Z,62.60
2024-04-06T21:50:50.999Z,62.52
2024-04-06T21:53:19.986Z,62.65
2024-04-06T21:55:51.674Z,62.76
2024-04-06T21:58:20.397Z,62.74
2024-04-06T22:00:48.890Z,62.82
2024-04-06T22:03:17.380Z,62.95
2024-04-06T22:05:45.896Z,63.05
2024-04-06T22:08:14.933Z,63.08
2024-04-06T22:10:45.349Z,63.29
2024-04-06T22:13:14.396Z,63.22
2024-04-06T22:15:42.855Z,63.39
2024-04-06T22:18:11.324Z,63.56
2024-04-06T22:20:39.805Z,63.49
2024-04-06T22:23:08.316Z,63.72
2024-04-06T22:25:36.839Z,63.55
2024-04-06T22:28:05.683Z,63.69
2024-04-06T22:30:34.241Z,63.55
2024-04-06T22:33:02.798Z,63.72
2024-04-06T22:35:31.291Z,63.82
2024-04-06T22:37:59.789Z,63.81
2024-04-06T22:40:28.384Z,63.75
2024-04-06T22:42:56.846Z,63.71
2024-04-06T22:45:25.833Z,63.60
2024-04-06T22:47:54.364Z,63.80
2024-04-06T22:50:22.858Z,63.76
2024-04-06T22:52:51.355Z,63.72
2024-04-06T22:55:19.946Z,63.79
2024-04-06T22:57:48.408Z,63.66
2024-04-06T23:00:17.006Z,63.81
2024-04-06T23:02:45.633Z,63.93
2024-04-06T23:05:14.163Z,64.08
2024-04-06T23:07:42.771Z,64.16
2024-04-06T23:10:11.347Z,64.17
2024-04-06T23:12:39.815Z,64.25
2024-04-06T23:15:09.276Z,64.19
2024-04-06T23:17:37.752Z,64.31
2024-04-06T23:20:06.855Z,64.34
2024-04-06T23:22:35.389Z,64.42
2024-04-06T23:25:07.500Z,64.62
2024-04-06T23:27:36.173Z,64.84
2024-04-06T23:30:04.759Z,65.00
2024-04-06T23:32:33.252Z,65.00
2024-04-06T23:35:01.785Z,65.05
2024-04-06T23:37:30.315Z,65.10
2024-04-06T23:39:58.810Z,64.93
2024-04-06T23:42:27.326Z,64.89
2024-04-06T23:44:56.199Z,65.02
2024-04-06T23:47:24.697Z,65.05
2024-04-06T23:49:53.574Z,65.13
2024-04-06T23:52:22.271Z,65.12
2024-04-06T23:54:50.758Z,65.20
2024-04-06T23:57:19.251Z,65.34
2024-04-06T23:59:47.767Z,65.34
